GLO1292 SBPL-SBSV
Flight info
| Callsign | GLO1292 |
|---|---|
| Flight time | 0h 47m |
| Altitude | 31000 |
| Route | DCT EDMUP DCT DORMU |
| Aircraft | B738/M-SDFGIKLORWX/LB1 |
Departure
| Time | 2026-04-22 19:22 |
|---|---|
| Airport | Senador Nilo Coelho Airport (SBPL) |
Arrival
| Time | 2026-04-22 20:09 |
|---|---|
| Airport | Deputado Luiz Eduardo Magalhães International Airport (SBSV) |
| Time | Latitude | Longitude | Altitude | Speed | Heading |
|---|---|---|---|---|---|
| 2026-04-22 19:10 | -9.36590 | -40.56556 | 1268 ft | 0 kts | 199° |
| 2026-04-22 19:15 | -9.36589 | -40.56556 | 1268 ft | 2 kts | 199° |
| 2026-04-22 19:15 | -9.36565 | -40.56543 | 1268 ft | 3 kts | 231° |
| 2026-04-22 19:15 | -9.36557 | -40.56525 | 1268 ft | 3 kts | 272° |
| 2026-04-22 19:15 | -9.36558 | -40.56514 | 1268 ft | 1 kts | 289° |
| 2026-04-22 19:17 | -9.36558 | -40.56515 | 1268 ft | 1 kts | 289° |
| 2026-04-22 19:17 | -9.36544 | -40.56555 | 1269 ft | 12 kts | 289° |
| 2026-04-22 19:17 | -9.36493 | -40.56585 | 1268 ft | 8 kts | 22° |
| 2026-04-22 19:18 | -9.36441 | -40.56564 | 1269 ft | 8 kts | 21° |
| 2026-04-22 19:18 | -9.36384 | -40.56554 | 1271 ft | 9 kts | 331° |
| 2026-04-22 19:18 | -9.36353 | -40.56618 | 1270 ft | 12 kts | 287° |
| 2026-04-22 19:18 | -9.36325 | -40.56709 | 1271 ft | 15 kts | 287° |
| 2026-04-22 19:19 | -9.36290 | -40.56824 | 1273 ft | 19 kts | 290° |
| 2026-04-22 19:19 | -9.36238 | -40.56961 | 1270 ft | 22 kts | 291° |
| 2026-04-22 19:19 | -9.36184 | -40.57104 | 1270 ft | 21 kts | 291° |
| 2026-04-22 19:19 | -9.36139 | -40.57245 | 1271 ft | 21 kts | 287° |
| 2026-04-22 19:20 | -9.36097 | -40.57383 | 1267 ft | 20 kts | 287° |
| 2026-04-22 19:20 | -9.36052 | -40.57513 | 1271 ft | 20 kts | 290° |
| 2026-04-22 19:20 | -9.36006 | -40.57639 | 1269 ft | 19 kts | 290° |
| 2026-04-22 19:20 | -9.35956 | -40.57759 | 1274 ft | 18 kts | 294° |
| 2026-04-22 19:21 | -9.35920 | -40.57862 | 1267 ft | 4 kts | 232° |
| 2026-04-22 19:21 | -9.35933 | -40.57855 | 1267 ft | 2 kts | 118° |
| 2026-04-22 19:21 | -9.35949 | -40.57790 | 1270 ft | 33 kts | 109° |
| 2026-04-22 19:21 | -9.36116 | -40.57302 | 1271 ft | 112 kts | 109° |
| 2026-04-22 19:22 | -9.36455 | -40.56335 | 1272 ft | 177 kts | 110° |
| 2026-04-22 19:22 | -9.36884 | -40.55064 | 1941 ft | 184 kts | 109° |
| 2026-04-22 19:22 | -9.37265 | -40.53898 | 3284 ft | 168 kts | 114° |
| 2026-04-22 19:22 | -9.37896 | -40.52874 | 3817 ft | 189 kts | 143° |
| 2026-04-22 19:23 | -9.39204 | -40.52439 | 4109 ft | 214 kts | 174° |
| 2026-04-22 19:23 | -9.40802 | -40.52349 | 4334 ft | 244 kts | 176° |
| 2026-04-22 19:23 | -9.42580 | -40.52261 | 4823 ft | 263 kts | 176° |
| 2026-04-22 19:23 | -9.44429 | -40.52165 | 5658 ft | 267 kts | 175° |
| 2026-04-22 19:24 | -9.46301 | -40.52054 | 6492 ft | 271 kts | 175° |
| 2026-04-22 19:24 | -9.48192 | -40.51931 | 7341 ft | 274 kts | 174° |
| 2026-04-22 19:24 | -9.50113 | -40.51797 | 8136 ft | 279 kts | 174° |
| 2026-04-22 19:24 | -9.52056 | -40.51656 | 8884 ft | 284 kts | 174° |
| 2026-04-22 19:25 | -9.54044 | -40.51510 | 9690 ft | 288 kts | 174° |
| 2026-04-22 19:25 | -9.56031 | -40.51362 | 10413 ft | 295 kts | 174° |
| 2026-04-22 19:25 | -9.58190 | -40.51195 | 10626 ft | 321 kts | 174° |
| 2026-04-22 19:25 | -9.60459 | -40.51022 | 10865 ft | 341 kts | 174° |
| 2026-04-22 19:26 | -9.62862 | -40.50838 | 11406 ft | 349 kts | 174° |
| 2026-04-22 19:26 | -9.65308 | -40.50651 | 12097 ft | 354 kts | 174° |
| 2026-04-22 19:26 | -9.67773 | -40.50461 | 12815 ft | 356 kts | 173° |
| 2026-04-22 19:26 | -9.70228 | -40.50049 | 13429 ft | 361 kts | 165° |
| 2026-04-22 19:27 | -9.72681 | -40.49424 | 14048 ft | 365 kts | 164° |
| 2026-04-22 19:27 | -9.74313 | -40.48988 | 14472 ft | 368 kts | 164° |
| 2026-04-22 19:27 | -9.76801 | -40.48315 | 15085 ft | 372 kts | 164° |
| 2026-04-22 19:27 | -9.80175 | -40.47405 | 15859 ft | 378 kts | 164° |
| 2026-04-22 19:28 | -9.81869 | -40.46951 | 16236 ft | 381 kts | 164° |
| 2026-04-22 19:28 | -9.84443 | -40.46266 | 16800 ft | 385 kts | 164° |
| 2026-04-22 19:28 | -9.87046 | -40.45577 | 17348 ft | 389 kts | 164° |
| 2026-04-22 19:28 | -9.89680 | -40.44883 | 17854 ft | 393 kts | 164° |
| 2026-04-22 19:29 | -9.92351 | -40.44183 | 18359 ft | 397 kts | 165° |
| 2026-04-22 19:29 | -9.95041 | -40.43477 | 18886 ft | 400 kts | 165° |
| 2026-04-22 19:29 | -9.97744 | -40.42768 | 19415 ft | 403 kts | 165° |
| 2026-04-22 19:29 | -10.00461 | -40.42056 | 19918 ft | 405 kts | 165° |
| 2026-04-22 19:30 | -10.02273 | -40.41580 | 20229 ft | 407 kts | 165° |
| 2026-04-22 19:30 | -10.05966 | -40.40612 | 20850 ft | 411 kts | 165° |
| 2026-04-22 19:30 | -10.08753 | -40.39881 | 21299 ft | 414 kts | 165° |
| 2026-04-22 19:30 | -10.11518 | -40.39156 | 21739 ft | 417 kts | 165° |
| 2026-04-22 19:31 | -10.14336 | -40.38417 | 22184 ft | 419 kts | 165° |
| 2026-04-22 19:31 | -10.17178 | -40.37671 | 22618 ft | 421 kts | 165° |
| 2026-04-22 19:31 | -10.20020 | -40.36925 | 23028 ft | 424 kts | 165° |
| 2026-04-22 19:31 | -10.22887 | -40.36172 | 23410 ft | 426 kts | 165° |
| 2026-04-22 19:32 | -10.25764 | -40.35416 | 23797 ft | 428 kts | 165° |
| 2026-04-22 19:32 | -10.28661 | -40.34655 | 24180 ft | 431 kts | 165° |
| 2026-04-22 19:32 | -10.31569 | -40.33889 | 24541 ft | 433 kts | 165° |
| 2026-04-22 19:32 | -10.34497 | -40.33118 | 24899 ft | 435 kts | 165° |
| 2026-04-22 19:33 | -10.37434 | -40.32347 | 25249 ft | 437 kts | 165° |
| 2026-04-22 19:33 | -10.40388 | -40.31571 | 25617 ft | 439 kts | 165° |
| 2026-04-22 19:33 | -10.43339 | -40.30795 | 26030 ft | 438 kts | 165° |
| 2026-04-22 19:33 | -10.46291 | -40.30019 | 26435 ft | 438 kts | 165° |
| 2026-04-22 19:34 | -10.49242 | -40.29244 | 26802 ft | 439 kts | 165° |
| 2026-04-22 19:34 | -10.52196 | -40.28467 | 27230 ft | 437 kts | 165° |
| 2026-04-22 19:34 | -10.55136 | -40.27694 | 27751 ft | 434 kts | 165° |
| 2026-04-22 19:34 | -10.58043 | -40.26929 | 28323 ft | 429 kts | 165° |
| 2026-04-22 19:35 | -10.60889 | -40.26180 | 28853 ft | 426 kts | 165° |
| 2026-04-22 19:35 | -10.63750 | -40.25427 | 29305 ft | 425 kts | 165° |
| 2026-04-22 19:35 | -10.66606 | -40.24675 | 29753 ft | 423 kts | 165° |
| 2026-04-22 19:35 | -10.69441 | -40.23929 | 30235 ft | 420 kts | 165° |
| 2026-04-22 19:36 | -10.72261 | -40.23185 | 30717 ft | 418 kts | 165° |
| 2026-04-22 19:36 | -10.75079 | -40.22442 | 30951 ft | 421 kts | 165° |
| 2026-04-22 19:36 | -10.77935 | -40.21688 | 30957 ft | 427 kts | 165° |
| 2026-04-22 19:37 | -10.83772 | -40.20149 | 30976 ft | 438 kts | 165° |
| 2026-04-22 19:37 | -10.89748 | -40.18572 | 30975 ft | 449 kts | 165° |
| 2026-04-22 19:38 | -10.95854 | -40.16962 | 30972 ft | 457 kts | 165° |
| 2026-04-22 19:38 | -11.02060 | -40.15324 | 30978 ft | 464 kts | 165° |
| 2026-04-22 19:39 | -11.08327 | -40.13670 | 30971 ft | 466 kts | 165° |
| 2026-04-22 19:39 | -11.14559 | -40.12024 | 30968 ft | 465 kts | 165° |
| 2026-04-22 19:40 | -11.20829 | -40.10367 | 30971 ft | 465 kts | 165° |
| 2026-04-22 19:40 | -11.27091 | -40.08711 | 30971 ft | 464 kts | 165° |
| 2026-04-22 19:41 | -11.33360 | -40.07051 | 30973 ft | 463 kts | 165° |
| 2026-04-22 19:41 | -11.39561 | -40.05411 | 30980 ft | 462 kts | 165° |
| 2026-04-22 19:42 | -11.45782 | -40.03763 | 30983 ft | 462 kts | 165° |
| 2026-04-22 19:42 | -11.52001 | -40.02115 | 30979 ft | 462 kts | 165° |
| 2026-04-22 19:43 | -11.61063 | -39.98926 | 30985 ft | 461 kts | 145° |
| 2026-04-22 19:43 | -11.65984 | -39.94718 | 30983 ft | 462 kts | 139° |
| 2026-04-22 19:44 | -11.70814 | -39.90377 | 30978 ft | 463 kts | 140° |
| 2026-04-22 19:44 | -11.75633 | -39.86101 | 30970 ft | 457 kts | 140° |
| 2026-04-22 19:45 | -11.80412 | -39.81908 | 30978 ft | 451 kts | 140° |
| 2026-04-22 19:45 | -11.85192 | -39.77728 | 30591 ft | 454 kts | 140° |
| 2026-04-22 19:46 | -11.87572 | -39.75647 | 30134 ft | 447 kts | 140° |
| 2026-04-22 19:46 | -11.89925 | -39.73586 | 29633 ft | 442 kts | 140° |
| 2026-04-22 19:46 | -11.91469 | -39.72235 | 29270 ft | 439 kts | 140° |
| 2026-04-22 19:46 | -11.92441 | -39.71384 | 29037 ft | 437 kts | 140° |
| 2026-04-22 19:47 | -11.94701 | -39.69404 | 28500 ft | 433 kts | 140° |
| 2026-04-22 19:47 | -11.96990 | -39.67398 | 27961 ft | 429 kts | 140° |
| 2026-04-22 19:47 | -11.99246 | -39.65421 | 27419 ft | 426 kts | 139° |
| 2026-04-22 19:47 | -12.01488 | -39.63456 | 26888 ft | 422 kts | 139° |
| 2026-04-22 19:48 | -12.03711 | -39.61507 | 26348 ft | 419 kts | 139° |
| 2026-04-22 19:48 | -12.05914 | -39.59575 | 25825 ft | 416 kts | 139° |
| 2026-04-22 19:48 | -12.08102 | -39.57656 | 25293 ft | 413 kts | 139° |
| 2026-04-22 19:48 | -12.10249 | -39.55772 | 24776 ft | 410 kts | 138° |
| 2026-04-22 19:49 | -12.12431 | -39.53856 | 24252 ft | 407 kts | 138° |
| 2026-04-22 19:49 | -12.14572 | -39.51977 | 23740 ft | 404 kts | 138° |
| 2026-04-22 19:49 | -12.16702 | -39.50106 | 23229 ft | 402 kts | 138° |
| 2026-04-22 19:49 | -12.18817 | -39.48249 | 22724 ft | 399 kts | 138° |
| 2026-04-22 19:50 | -12.20915 | -39.46406 | 22208 ft | 397 kts | 138° |
| 2026-04-22 19:50 | -12.23003 | -39.44570 | 21725 ft | 395 kts | 138° |
| 2026-04-22 19:50 | -12.25076 | -39.42748 | 21226 ft | 392 kts | 138° |
| 2026-04-22 19:50 | -12.27138 | -39.40935 | 20729 ft | 390 kts | 138° |
| 2026-04-22 19:51 | -12.29190 | -39.39131 | 20239 ft | 388 kts | 139° |
| 2026-04-22 19:51 | -12.31231 | -39.37336 | 19749 ft | 386 kts | 139° |
| 2026-04-22 19:51 | -12.33241 | -39.35568 | 19272 ft | 384 kts | 139° |
| 2026-04-22 19:51 | -12.35258 | -39.33794 | 18791 ft | 382 kts | 139° |
| 2026-04-22 19:52 | -12.37270 | -39.32021 | 18308 ft | 381 kts | 139° |
| 2026-04-22 19:52 | -12.39270 | -39.30260 | 17828 ft | 379 kts | 139° |
| 2026-04-22 19:52 | -12.41266 | -39.28503 | 17351 ft | 377 kts | 139° |
| 2026-04-22 19:52 | -12.43249 | -39.26756 | 16880 ft | 376 kts | 139° |
| 2026-04-22 19:53 | -12.45232 | -39.25021 | 16410 ft | 373 kts | 139° |
| 2026-04-22 19:53 | -12.47209 | -39.23300 | 15941 ft | 371 kts | 139° |
| 2026-04-22 19:53 | -12.49170 | -39.21595 | 15478 ft | 369 kts | 139° |
| 2026-04-22 19:53 | -12.51119 | -39.19900 | 15016 ft | 367 kts | 139° |
| 2026-04-22 19:54 | -12.53057 | -39.18212 | 14562 ft | 364 kts | 139° |
| 2026-04-22 19:54 | -12.54978 | -39.16539 | 14105 ft | 362 kts | 139° |
| 2026-04-22 19:54 | -12.56890 | -39.14871 | 13646 ft | 360 kts | 139° |
| 2026-04-22 19:54 | -12.58787 | -39.13216 | 13192 ft | 357 kts | 139° |
| 2026-04-22 19:55 | -12.60675 | -39.11568 | 12739 ft | 355 kts | 139° |
| 2026-04-22 19:55 | -12.62550 | -39.09931 | 12287 ft | 353 kts | 139° |
| 2026-04-22 19:55 | -12.64412 | -39.08306 | 11839 ft | 350 kts | 139° |
| 2026-04-22 19:55 | -12.66259 | -39.06692 | 11391 ft | 348 kts | 139° |
| 2026-04-22 19:56 | -12.68095 | -39.05090 | 10939 ft | 345 kts | 139° |
| 2026-04-22 19:56 | -12.69906 | -39.03508 | 10715 ft | 336 kts | 139° |
| 2026-04-22 19:56 | -12.71661 | -39.01975 | 10552 ft | 326 kts | 139° |
| 2026-04-22 19:56 | -12.73332 | -39.00514 | 10408 ft | 316 kts | 139° |
| 2026-04-22 19:57 | -12.74980 | -38.99069 | 10263 ft | 307 kts | 139° |
| 2026-04-22 19:57 | -12.76580 | -38.97669 | 10126 ft | 298 kts | 139° |
| 2026-04-22 19:57 | -12.78131 | -38.96309 | 10000 ft | 289 kts | 139° |
| 2026-04-22 19:57 | -12.79649 | -38.94977 | 9744 ft | 286 kts | 139° |
| 2026-04-22 19:58 | -12.81163 | -38.93668 | 9465 ft | 283 kts | 139° |
| 2026-04-22 19:58 | -12.82657 | -38.92358 | 9181 ft | 281 kts | 138° |
| 2026-04-22 19:58 | -12.84140 | -38.91050 | 8873 ft | 280 kts | 139° |
| 2026-04-22 19:58 | -12.85612 | -38.89754 | 8584 ft | 278 kts | 137° |
| 2026-04-22 19:59 | -12.86788 | -38.88210 | 8304 ft | 275 kts | 116° |
| 2026-04-22 20:00 | -12.90547 | -38.77429 | 6651 ft | 259 kts | 110° |
| 2026-04-22 20:00 | -12.91147 | -38.75719 | 6364 ft | 258 kts | 111° |
| 2026-04-22 20:01 | -12.91757 | -38.73968 | 6084 ft | 257 kts | 111° |
| 2026-04-22 20:01 | -12.92349 | -38.72268 | 5891 ft | 253 kts | 111° |
| 2026-04-22 20:01 | -12.92929 | -38.70594 | 5765 ft | 246 kts | 111° |
| 2026-04-22 20:01 | -12.93495 | -38.68965 | 5650 ft | 239 kts | 111° |
| 2026-04-22 20:02 | -12.94042 | -38.67391 | 5552 ft | 230 kts | 111° |
| 2026-04-22 20:02 | -12.94571 | -38.65868 | 5458 ft | 222 kts | 111° |
| 2026-04-22 20:02 | -12.95080 | -38.64403 | 5336 ft | 215 kts | 111° |
| 2026-04-22 20:02 | -12.95577 | -38.62978 | 5121 ft | 208 kts | 111° |
| 2026-04-22 20:03 | -12.96058 | -38.61595 | 4888 ft | 203 kts | 111° |
| 2026-04-22 20:03 | -12.96404 | -38.60223 | 4655 ft | 198 kts | 90° |
| 2026-04-22 20:03 | -12.96144 | -38.58858 | 4479 ft | 191 kts | 81° |
| 2026-04-22 20:03 | -12.95888 | -38.57541 | 4249 ft | 186 kts | 82° |
| 2026-04-22 20:04 | -12.95645 | -38.56262 | 4042 ft | 181 kts | 82° |
| 2026-04-22 20:04 | -12.95400 | -38.55004 | 3852 ft | 179 kts | 82° |
| 2026-04-22 20:04 | -12.95155 | -38.53767 | 3666 ft | 179 kts | 82° |
| 2026-04-22 20:04 | -12.94908 | -38.52524 | 3498 ft | 176 kts | 82° |
| 2026-04-22 20:05 | -12.94663 | -38.51303 | 3449 ft | 177 kts | 82° |
| 2026-04-22 20:05 | -12.94416 | -38.50075 | 3228 ft | 170 kts | 82° |
| 2026-04-22 20:05 | -12.94185 | -38.48924 | 3009 ft | 160 kts | 82° |
| 2026-04-22 20:05 | -12.93967 | -38.47825 | 2817 ft | 154 kts | 82° |
| 2026-04-22 20:06 | -12.93752 | -38.46749 | 2605 ft | 157 kts | 82° |
| 2026-04-22 20:06 | -12.93534 | -38.45658 | 2412 ft | 157 kts | 82° |
| 2026-04-22 20:06 | -12.93314 | -38.44559 | 2196 ft | 157 kts | 83° |
| 2026-04-22 20:06 | -12.93097 | -38.43460 | 1992 ft | 158 kts | 82° |
| 2026-04-22 20:07 | -12.92876 | -38.42360 | 1772 ft | 155 kts | 84° |
| 2026-04-22 20:07 | -12.92673 | -38.41264 | 1569 ft | 158 kts | 81° |
| 2026-04-22 20:07 | -12.92437 | -38.40172 | 1357 ft | 156 kts | 82° |
| 2026-04-22 20:07 | -12.92221 | -38.39075 | 1152 ft | 157 kts | 82° |
| 2026-04-22 20:08 | -12.92003 | -38.37998 | 955 ft | 156 kts | 82° |
| 2026-04-22 20:08 | -12.91786 | -38.36905 | 747 ft | 157 kts | 82° |
| 2026-04-22 20:08 | -12.91566 | -38.35803 | 527 ft | 155 kts | 82° |
| 2026-04-22 20:08 | -12.91352 | -38.34733 | 234 ft | 157 kts | 81° |
| 2026-04-22 20:09 | -12.91141 | -38.33659 | 70 ft | 151 kts | 81° |
| 2026-04-22 20:09 | -12.90945 | -38.32698 | 49 ft | 112 kts | 79° |
| 2026-04-22 20:09 | -12.90858 | -38.32246 | 50 ft | 24 kts | 90° |
| 2026-04-22 20:09 | -12.90935 | -38.32234 | 50 ft | 13 kts | 220° |
| 2026-04-22 20:10 | -12.91003 | -38.32293 | 52 ft | 13 kts | 220° |
| 2026-04-22 20:10 | -12.91040 | -38.32372 | 51 ft | 13 kts | 257° |
| 2026-04-22 20:10 | -12.91059 | -38.32462 | 52 ft | 13 kts | 257° |
| 2026-04-22 20:10 | -12.91077 | -38.32553 | 51 ft | 14 kts | 263° |
| 2026-04-22 20:11 | -12.91096 | -38.32659 | 51 ft | 16 kts | 257° |
| 2026-04-22 20:11 | -12.91123 | -38.32783 | 46 ft | 18 kts | 257° |
| 2026-04-22 20:11 | -12.91150 | -38.32916 | 46 ft | 21 kts | 258° |
| 2026-04-22 20:11 | -12.91181 | -38.33071 | 44 ft | 24 kts | 258° |
| 2026-04-22 20:12 | -12.91199 | -38.33163 | 43 ft | 11 kts | 257° |
| 2026-04-22 20:12 | -12.91216 | -38.33246 | 43 ft | 13 kts | 257° |
| 2026-04-22 20:12 | -12.91242 | -38.33303 | 43 ft | 14 kts | 210° |
| 2026-04-22 20:12 | -12.91348 | -38.33315 | 43 ft | 0 kts | 168° |